createdAt,value
2018-03-03T00:00:57.487Z,32.10
2018-03-03T00:01:57.407Z,33.60
2018-03-03T00:02:57.316Z,33.70
2018-03-03T00:03:57.231Z,33.70
2018-03-03T00:04:57.143Z,33.60
2018-03-03T00:05:57.057Z,34.40
2018-03-03T00:06:56.970Z,32.10
2018-03-03T00:07:56.885Z,33.70
2018-03-03T00:08:56.796Z,34.50
2018-03-03T00:09:56.715Z,34.10
2018-03-03T00:10:56.626Z,34.00
2018-03-03T00:11:56.540Z,34.10
2018-03-03T00:12:56.452Z,34.30
2018-03-03T00:13:56.369Z,34.80
2018-03-03T00:14:56.279Z,34.50
2018-03-03T00:15:56.194Z,34.80
2018-03-03T00:16:56.107Z,35.00
2018-03-03T00:17:56.021Z,34.50
2018-03-03T00:18:55.938Z,35.30
2018-03-03T00:19:55.849Z,35.90
2018-03-03T00:20:55.763Z,34.30
2018-03-03T00:21:55.677Z,34.60
2018-03-03T00:22:55.590Z,34.90
2018-03-03T00:23:55.503Z,34.30
2018-03-03T00:24:55.418Z,36.50
2018-03-03T00:25:55.332Z,36.90
2018-03-03T00:26:55.246Z,35.30
2018-03-03T00:27:55.161Z,36.10
2018-03-03T00:28:55.073Z,35.70
2018-03-03T00:29:54.986Z,38.00
2018-03-03T00:30:54.901Z,36.60
2018-03-03T00:31:54.815Z,37.20
2018-03-03T00:32:54.728Z,36.10
2018-03-03T00:33:54.644Z,35.10
2018-03-03T00:34:54.557Z,35.80
2018-03-03T00:35:54.471Z,36.30
2018-03-03T00:36:54.384Z,36.60
2018-03-03T00:37:54.298Z,36.90
2018-03-03T00:38:54.212Z,36.20
2018-03-03T00:39:54.127Z,36.10
2018-03-03T00:40:54.040Z,37.70
2018-03-03T00:41:53.954Z,36.20
2018-03-03T00:42:53.868Z,37.70
2018-03-03T00:43:53.780Z,36.20
2018-03-03T00:44:53.694Z,36.00
2018-03-03T00:45:53.610Z,36.70
2018-03-03T00:46:53.523Z,34.60
2018-03-03T00:47:53.437Z,36.80
2018-03-03T00:48:53.350Z,35.10
2018-03-03T00:49:53.264Z,37.10
2018-03-03T00:50:53.179Z,37.30
2018-03-03T00:51:53.093Z,35.30
2018-03-03T00:52:53.006Z,35.00
2018-03-03T00:53:52.920Z,37.40
2018-03-03T00:54:52.834Z,36.00
2018-03-03T00:55:52.749Z,34.60
2018-03-03T00:56:52.664Z,36.10
2018-03-03T00:57:52.581Z,36.10
2018-03-03T00:58:52.490Z,38.00
2018-03-03T00:59:52.409Z,36.50
2018-03-03T01:00:52.319Z,37.30
2018-03-03T01:01:52.232Z,36.70
2018-03-03T01:02:52.146Z,35.40
2018-03-03T01:03:52.063Z,36.60
2018-03-03T01:04:51.973Z,37.20
2018-03-03T01:05:51.887Z,37.10
2018-03-03T01:06:51.801Z,36.30
2018-03-03T01:07:51.716Z,36.50
2018-03-03T01:08:51.629Z,37.00
2018-03-03T01:09:51.542Z,35.10
2018-03-03T01:10:51.462Z,36.50
2018-03-03T01:11:51.371Z,37.30
2018-03-03T01:12:51.284Z,37.90
2018-03-03T01:13:51.198Z,35.90
2018-03-03T01:14:51.112Z,37.90
2018-03-03T01:15:51.027Z,39.20
2018-03-03T01:16:50.940Z,37.60
2018-03-03T01:17:50.853Z,36.30
2018-03-03T01:18:50.766Z,38.00
2018-03-03T01:19:50.681Z,37.30
2018-03-03T01:20:50.594Z,37.90
2018-03-03T01:21:50.508Z,35.30
2018-03-03T01:22:50.422Z,35.30
2018-03-03T01:23:50.337Z,35.70
2018-03-03T01:24:50.250Z,36.40
2018-03-03T01:25:50.164Z,35.60
2018-03-03T01:26:50.078Z,37.10
2018-03-03T01:27:49.992Z,36.90
2018-03-03T01:28:49.906Z,37.10
2018-03-03T01:29:49.820Z,36.60
2018-03-03T01:30:49.734Z,34.50
2018-03-03T01:31:49.653Z,36.30
2018-03-03T01:32:49.562Z,35.80
2018-03-03T01:33:49.476Z,34.60
2018-03-03T01:34:49.390Z,35.00
2018-03-03T01:35:49.304Z,35.20
2018-03-03T01:36:49.219Z,36.30
2018-03-03T01:37:49.133Z,37.00
2018-03-03T01:38:49.046Z,36.30
2018-03-03T01:39:48.961Z,35.90
2018-03-03T01:40:48.874Z,37.40
2018-03-03T01:41:48.792Z,36.90
2018-03-03T01:42:48.703Z,37.00
2018-03-03T01:43:48.618Z,36.40
2018-03-03T01:44:48.530Z,35.80
2018-03-03T01:45:48.445Z,36.60
2018-03-03T01:46:48.360Z,37.90
2018-03-03T01:47:48.274Z,35.70
2018-03-03T01:48:48.186Z,36.50
2018-03-03T01:49:48.100Z,38.60
2018-03-03T01:50:48.016Z,37.80
2018-03-03T01:51:47.933Z,34.30
2018-03-03T01:52:47.844Z,36.30
2018-03-03T01:53:47.758Z,35.90
2018-03-03T01:54:47.673Z,36.20
2018-03-03T01:55:47.585Z,35.20
2018-03-03T01:56:47.500Z,35.20
2018-03-03T01:57:47.415Z,36.50
2018-03-03T01:58:47.329Z,34.60
2018-03-03T01:59:47.246Z,35.40
2018-03-03T02:00:47.157Z,40.20
2018-03-03T02:01:47.070Z,36.70
2018-03-03T02:02:46.984Z,35.10
2018-03-03T02:03:46.899Z,36.20
2018-03-03T02:04:46.813Z,36.90
2018-03-03T02:05:46.726Z,38.40
2018-03-03T02:06:46.646Z,37.70
2018-03-03T02:07:46.556Z,36.90
2018-03-03T02:08:46.469Z,36.90
2018-03-03T02:09:46.386Z,35.80
2018-03-03T02:10:46.297Z,38.10
2018-03-03T02:11:46.212Z,37.80
2018-03-03T02:12:46.124Z,35.20
2018-03-03T02:13:46.039Z,37.60
2018-03-03T02:14:45.953Z,37.50
2018-03-03T02:15:45.869Z,36.80
2018-03-03T02:16:45.781Z,36.90
2018-03-03T02:17:45.698Z,38.00
2018-03-03T02:18:45.611Z,36.20
2018-03-03T02:19:45.524Z,38.50
2018-03-03T02:20:45.437Z,37.90
2018-03-03T02:21:45.351Z,37.50
2018-03-03T02:22:45.266Z,38.00
2018-03-03T02:23:45.180Z,37.90
2018-03-03T02:24:45.093Z,38.70
2018-03-03T02:25:45.008Z,36.40
2018-03-03T02:26:44.922Z,38.30
2018-03-03T02:27:44.835Z,38.40
2018-03-03T02:28:44.753Z,38.50
2018-03-03T02:29:44.664Z,38.70
2018-03-03T02:30:44.579Z,37.40
2018-03-03T02:31:44.493Z,38.20
2018-03-03T02:32:44.411Z,39.00
2018-03-03T02:33:44.321Z,38.00
2018-03-03T02:34:44.240Z,38.10
2018-03-03T02:35:44.151Z,38.30
2018-03-03T02:36:44.064Z,38.00
2018-03-03T02:37:43.977Z,38.60
2018-03-03T02:38:43.894Z,37.40
2018-03-03T02:39:43.807Z,38.00
2018-03-03T02:40:43.721Z,38.70
2018-03-03T02:41:43.635Z,39.70
2018-03-03T02:42:43.548Z,37.30
2018-03-03T02:43:43.469Z,37.80
2018-03-03T02:44:43.377Z,37.90
2018-03-03T02:45:52.564Z,37.90
2018-03-03T02:46:43.206Z,38.90
2018-03-03T02:47:43.127Z,39.50
2018-03-03T02:48:43.035Z,37.20
2018-03-03T02:49:42.949Z,37.10
2018-03-03T02:50:42.865Z,37.10
2018-03-03T02:51:42.778Z,36.70
2018-03-03T02:52:42.694Z,36.60
2018-03-03T02:53:42.605Z,36.70
2018-03-03T02:54:42.521Z,36.80
2018-03-03T02:55:42.435Z,38.00
2018-03-03T02:56:42.348Z,36.30
2018-03-03T02:57:42.265Z,38.10
2018-03-03T02:58:42.178Z,36.50
2018-03-03T02:59:42.095Z,38.50
2018-03-03T03:00:42.005Z,37.10
2018-03-03T03:01:41.920Z,37.60
2018-03-03T03:02:41.839Z,37.40
2018-03-03T03:03:41.749Z,38.80
2018-03-03T03:04:41.661Z,38.00
2018-03-03T03:05:41.577Z,39.10
2018-03-03T03:06:41.490Z,37.20
2018-03-03T03:07:41.405Z,38.10
2018-03-03T03:08:41.318Z,38.30
2018-03-03T03:09:41.233Z,36.90
2018-03-03T03:10:41.147Z,37.50
2018-03-03T03:11:41.061Z,36.40
2018-03-03T03:12:40.975Z,37.90
2018-03-03T03:13:40.892Z,37.40
2018-03-03T03:14:40.804Z,38.10
2018-03-03T03:15:40.718Z,38.10
2018-03-03T03:16:40.632Z,37.60
2018-03-03T03:17:40.547Z,37.40
2018-03-03T03:18:40.466Z,40.90
2018-03-03T03:19:40.375Z,51.70
2018-03-03T03:20:40.290Z,38.30
2018-03-03T03:21:40.205Z,37.40
2018-03-03T03:22:40.118Z,37.90
2018-03-03T03:23:40.032Z,37.40
2018-03-03T03:24:39.950Z,36.40
2018-03-03T03:25:39.860Z,37.40
2018-03-03T03:26:39.774Z,37.90
2018-03-03T03:27:39.688Z,37.70
2018-03-03T03:28:39.603Z,39.20
2018-03-03T03:29:39.517Z,37.50
2018-03-03T03:30:39.431Z,37.70
2018-03-03T03:31:39.349Z,37.20
2018-03-03T03:32:39.257Z,38.70
2018-03-03T03:33:39.173Z,37.40
2018-03-03T03:34:39.085Z,38.60
2018-03-03T03:35:38.999Z,38.40
2018-03-03T03:36:38.913Z,38.20
2018-03-03T03:37:38.827Z,38.80
2018-03-03T03:38:38.742Z,38.70
2018-03-03T03:39:38.656Z,39.30
2018-03-03T03:40:38.568Z,39.50
2018-03-03T03:41:38.483Z,38.60
2018-03-03T03:42:38.398Z,38.50
2018-03-03T03:43:38.312Z,37.90
2018-03-03T03:44:38.226Z,38.40
2018-03-03T03:45:38.140Z,39.60
2018-03-03T03:46:38.053Z,37.70
2018-03-03T03:47:37.969Z,37.90
2018-03-03T03:48:37.881Z,38.70
2018-03-03T03:49:37.796Z,37.80
2018-03-03T03:50:37.710Z,39.10
2018-03-03T03:51:37.625Z,37.90
2018-03-03T03:52:37.538Z,37.90
2018-03-03T03:53:37.453Z,37.30
2018-03-03T03:54:37.367Z,38.80
2018-03-03T03:55:37.281Z,38.50
2018-03-03T03:56:37.198Z,38.50
2018-03-03T03:57:37.120Z,37.70
2018-03-03T03:58:37.023Z,38.30
2018-03-03T03:59:36.938Z,38.40
2018-03-03T04:00:36.850Z,39.40
2018-03-03T04:01:36.764Z,39.90
2018-03-03T04:02:36.678Z,37.60
2018-03-03T04:03:36.891Z,38.20
2018-03-03T04:04:36.506Z,39.60
2018-03-03T04:05:36.423Z,38.90
2018-03-03T04:06:36.334Z,38.70
2018-03-03T04:07:36.249Z,38.20
2018-03-03T04:08:36.161Z,39.30
2018-03-03T04:09:36.075Z,39.60
2018-03-03T04:10:35.989Z,39.30
2018-03-03T04:11:35.903Z,39.70
2018-03-03T04:12:35.816Z,40.00
2018-03-03T04:13:35.730Z,40.10
2018-03-03T04:14:35.647Z,41.50
2018-03-03T04:15:35.559Z,40.10
2018-03-03T04:16:35.472Z,39.90
2018-03-03T04:17:35.387Z,40.70
2018-03-03T04:18:35.302Z,41.70
2018-03-03T04:19:35.220Z,39.60
2018-03-03T04:20:35.129Z,39.80
2018-03-03T04:21:35.047Z,42.00
2018-03-03T04:22:34.958Z,41.40
2018-03-03T04:23:34.872Z,39.30
2018-03-03T04:24:34.785Z,40.50
2018-03-03T04:25:34.700Z,41.10
2018-03-03T04:26:34.617Z,40.40
2018-03-03T04:27:34.528Z,39.90
2018-03-03T04:28:34.440Z,40.50
2018-03-03T04:29:34.355Z,39.20
2018-03-03T04:30:34.270Z,40.50
2018-03-03T04:31:34.183Z,39.70
2018-03-03T04:32:34.097Z,41.50
2018-03-03T04:33:34.010Z,42.10
2018-03-03T04:34:33.924Z,40.40
2018-03-03T04:35:33.838Z,41.50
2018-03-03T04:36:33.751Z,40.70
2018-03-03T04:37:33.665Z,39.20
2018-03-03T04:38:33.579Z,42.80
2018-03-03T04:39:33.493Z,40.30
2018-03-03T04:40:33.408Z,40.70
2018-03-03T04:41:33.323Z,40.30
2018-03-03T04:42:33.234Z,40.60
2018-03-03T04:43:33.148Z,40.00
2018-03-03T04:44:33.061Z,39.80
2018-03-03T04:45:32.977Z,41.60
2018-03-03T04:46:32.889Z,40.80
2018-03-03T04:47:32.812Z,40.90
2018-03-03T04:48:32.717Z,41.40
2018-03-03T04:49:32.630Z,40.40
2018-03-03T04:50:32.545Z,42.00
2018-03-03T04:51:32.462Z,43.00
2018-03-03T04:52:32.371Z,43.20
2018-03-03T04:53:32.284Z,40.70
2018-03-03T04:54:32.201Z,43.00
2018-03-03T04:55:32.114Z,44.50
2018-03-03T04:56:32.027Z,41.00
2018-03-03T04:57:31.941Z,43.10
2018-03-03T04:58:31.855Z,43.60
2018-03-03T04:59:31.769Z,42.10
2018-03-03T05:00:31.683Z,41.90
2018-03-03T05:01:31.595Z,40.40
2018-03-03T05:02:31.510Z,41.10
2018-03-03T05:03:31.424Z,41.90
2018-03-03T05:04:31.338Z,42.30
2018-03-03T05:05:31.252Z,43.10
2018-03-03T05:06:31.166Z,42.50
2018-03-03T05:07:31.081Z,43.00
2018-03-03T05:08:30.995Z,40.90
2018-03-03T05:09:30.908Z,41.70
2018-03-03T05:10:30.822Z,43.00
2018-03-03T05:11:30.736Z,42.20
2018-03-03T05:12:30.649Z,42.30
2018-03-03T05:13:30.563Z,43.00
2018-03-03T05:14:30.478Z,44.00
2018-03-03T05:15:30.396Z,44.50
2018-03-03T05:16:30.306Z,42.40
2018-03-03T05:17:30.225Z,45.40
2018-03-03T05:18:30.135Z,40.50
2018-03-03T05:19:30.049Z,43.20
2018-03-03T05:20:29.962Z,42.00
2018-03-03T05:21:29.877Z,40.40
2018-03-03T05:22:29.790Z,43.40
2018-03-03T05:23:29.705Z,42.60
2018-03-03T05:24:29.618Z,43.00
2018-03-03T05:25:29.535Z,43.00
2018-03-03T05:26:29.447Z,41.20
2018-03-03T05:27:29.362Z,40.80
2018-03-03T05:28:29.274Z,42.60
2018-03-03T05:29:29.189Z,42.50
2018-03-03T05:30:29.103Z,43.30
2018-03-03T05:31:29.018Z,43.40
2018-03-03T05:32:28.932Z,44.80
2018-03-03T05:33:28.850Z,44.40
2018-03-03T05:34:28.760Z,43.30
2018-03-03T05:35:28.675Z,42.60
2018-03-03T05:36:28.599Z,42.60
2018-03-03T05:37:28.503Z,44.40
2018-03-03T05:38:28.416Z,42.60
2018-03-03T05:39:28.331Z,43.20
2018-03-03T05:40:28.244Z,44.20
2018-03-03T05:41:28.158Z,44.30
2018-03-03T05:42:28.073Z,44.10
2018-03-03T05:43:27.995Z,43.30
2018-03-03T05:44:27.901Z,43.70
2018-03-03T05:45:27.814Z,44.20
2018-03-03T05:46:27.728Z,42.90
2018-03-03T05:47:27.643Z,43.20
2018-03-03T05:48:27.558Z,43.80
2018-03-03T05:49:27.472Z,44.30
2018-03-03T05:50:27.427Z,43.80
2018-03-03T05:51:27.298Z,44.30
2018-03-03T05:52:27.214Z,43.20
2018-03-03T05:53:27.126Z,44.40
2018-03-03T05:54:27.041Z,44.00
2018-03-03T05:55:26.954Z,44.10
2018-03-03T05:56:26.867Z,43.30
2018-03-03T05:57:26.782Z,43.40
2018-03-03T05:58:26.695Z,44.00
2018-03-03T05:59:26.609Z,45.20
2018-03-03T06:00:26.522Z,43.90
2018-03-03T06:01:26.440Z,43.90
2018-03-03T06:02:26.351Z,44.80
2018-03-03T06:03:26.264Z,46.80
2018-03-03T06:04:26.178Z,45.40
2018-03-03T06:05:26.097Z,44.90
2018-03-03T06:06:26.007Z,46.10
2018-03-03T06:07:25.920Z,46.30
2018-03-03T06:08:25.832Z,43.90
2018-03-03T06:09:25.747Z,44.20
2018-03-03T06:10:25.661Z,45.60
2018-03-03T06:11:25.576Z,43.50
2018-03-03T06:12:25.488Z,44.40
2018-03-03T06:13:25.402Z,43.70
2018-03-03T06:14:25.316Z,46.50
2018-03-03T06:15:25.231Z,43.50
2018-03-03T06:16:25.144Z,43.60
2018-03-03T06:17:25.058Z,44.30
2018-03-03T06:18:24.972Z,43.50
2018-03-03T06:19:24.886Z,45.80
2018-03-03T06:20:24.799Z,45.40
2018-03-03T06:21:24.714Z,45.30
2018-03-03T06:22:24.631Z,46.60
2018-03-03T06:23:24.542Z,46.40
2018-03-03T06:24:24.455Z,47.10
2018-03-03T06:25:24.370Z,46.80
2018-03-03T06:26:24.283Z,49.60
2018-03-03T06:27:24.197Z,44.90
2018-03-03T06:28:24.111Z,45.40
2018-03-03T06:29:24.027Z,45.60
2018-03-03T06:30:23.939Z,46.20
2018-03-03T06:31:23.853Z,46.20
2018-03-03T06:32:23.766Z,46.70
2018-03-03T06:33:23.680Z,47.20
2018-03-03T06:34:23.594Z,46.20
2018-03-03T06:35:23.509Z,49.30
2018-03-03T06:36:23.421Z,45.80
2018-03-03T06:37:23.335Z,44.70
2018-03-03T06:38:23.249Z,45.50
2018-03-03T06:39:23.163Z,46.60
2018-03-03T06:40:23.077Z,47.10
2018-03-03T06:41:22.991Z,46.20
2018-03-03T06:42:22.905Z,47.10
2018-03-03T06:43:22.818Z,50.50
2018-03-03T06:44:22.736Z,46.90
2018-03-03T06:45:22.645Z,46.20
2018-03-03T06:46:22.562Z,56.70
2018-03-03T06:47:22.473Z,46.90
2018-03-03T06:48:22.387Z,47.90
2018-03-03T06:49:22.300Z,45.70
2018-03-03T06:50:22.214Z,48.10
2018-03-03T06:51:22.130Z,48.70
2018-03-03T06:52:22.057Z,46.30
2018-03-03T06:53:21.954Z,48.40
2018-03-03T06:54:21.869Z,48.90
2018-03-03T06:55:21.783Z,46.20
2018-03-03T06:56:21.697Z,47.00
2018-03-03T06:57:21.610Z,46.60
2018-03-03T06:58:21.525Z,47.00
2018-03-03T06:59:21.439Z,47.20
2018-03-03T07:00:21.351Z,47.50
2018-03-03T07:01:21.265Z,44.40
2018-03-03T07:02:21.180Z,46.30
2018-03-03T07:03:21.093Z,45.80
2018-03-03T07:04:21.005Z,46.40
2018-03-03T07:05:20.918Z,45.20
2018-03-03T07:06:20.839Z,46.60
2018-03-03T07:07:20.747Z,48.00
2018-03-03T07:08:20.663Z,46.60
2018-03-03T07:09:20.574Z,45.50
2018-03-03T07:10:20.488Z,46.30
2018-03-03T07:11:20.402Z,47.20
2018-03-03T07:12:20.316Z,46.90
2018-03-03T07:13:20.234Z,46.60
2018-03-03T07:14:20.145Z,47.20
2018-03-03T07:15:20.058Z,48.50
2018-03-03T07:16:19.971Z,44.10
2018-03-03T07:17:19.885Z,43.40
2018-03-03T07:18:19.801Z,46.50
2018-03-03T07:19:19.715Z,47.70
2018-03-03T07:20:19.629Z,45.60
2018-03-03T07:21:19.542Z,44.60
2018-03-03T07:22:19.457Z,44.90
2018-03-03T07:23:19.371Z,45.00
2018-03-03T07:24:19.330Z,46.80
2018-03-03T07:25:19.199Z,47.60
2018-03-03T07:26:19.114Z,44.70
2018-03-03T07:27:19.029Z,44.30
2018-03-03T07:28:19.005Z,45.10
2018-03-03T07:29:18.855Z,46.10
2018-03-03T07:30:18.774Z,45.00
2018-03-03T07:31:18.684Z,46.10
2018-03-03T07:32:18.596Z,44.50
2018-03-03T07:33:18.512Z,45.00
2018-03-03T07:34:18.427Z,45.60
2018-03-03T07:35:18.341Z,43.00
2018-03-03T07:36:18.254Z,44.90
2018-03-03T07:37:18.169Z,44.90
2018-03-03T07:38:18.082Z,45.50
2018-03-03T07:39:17.997Z,46.70
2018-03-03T07:40:17.913Z,44.40
2018-03-03T07:41:17.826Z,45.30
2018-03-03T07:42:17.740Z,44.10
2018-03-03T07:43:17.656Z,44.50
2018-03-03T07:44:17.568Z,44.30
2018-03-03T07:45:17.482Z,43.10
2018-03-03T07:46:17.397Z,42.40
2018-03-03T07:47:17.311Z,43.60
2018-03-03T07:48:17.225Z,43.30
2018-03-03T07:49:17.143Z,44.40
2018-03-03T07:50:17.054Z,44.60
2018-03-03T07:51:16.969Z,44.50
2018-03-03T07:52:16.883Z,43.80
2018-03-03T07:53:16.802Z,46.00
2018-03-03T07:54:16.715Z,45.60
2018-03-03T07:55:16.628Z,44.30
2018-03-03T07:56:16.542Z,42.80
2018-03-03T07:57:16.457Z,42.50
2018-03-03T07:58:16.373Z,44.10
2018-03-03T07:59:16.287Z,43.60
2018-03-03T08:00:16.202Z,43.20
2018-03-03T08:01:16.117Z,42.70
2018-03-03T08:02:16.033Z,43.00
2018-03-03T08:03:15.948Z,43.50
2018-03-03T08:04:15.862Z,44.50
2018-03-03T08:05:15.778Z,44.70
2018-03-03T08:06:15.693Z,44.30
2018-03-03T08:07:15.612Z,43.20
2018-03-03T08:08:15.522Z,43.70
2018-03-03T08:09:15.437Z,44.40
2018-03-03T08:10:15.353Z,44.10
2018-03-03T08:11:15.269Z,43.10
2018-03-03T08:12:15.183Z,45.60
2018-03-03T08:13:15.099Z,47.10
2018-03-03T08:14:15.015Z,47.80
2018-03-03T08:15:14.930Z,43.10
2018-03-03T08:16:14.845Z,41.80
2018-03-03T08:17:14.760Z,43.50
2018-03-03T08:18:14.676Z,42.20
2018-03-03T08:19:14.592Z,42.40
2018-03-03T08:20:14.507Z,42.30
2018-03-03T08:21:14.423Z,43.00
2018-03-03T08:22:14.337Z,41.30
2018-03-03T08:23:14.253Z,42.60
2018-03-03T08:24:14.168Z,42.30
2018-03-03T08:25:14.085Z,40.00
2018-03-03T08:26:14.000Z,42.40
2018-03-03T08:27:13.918Z,42.60
2018-03-03T08:28:13.830Z,41.90
2018-03-03T08:29:13.747Z,39.80
2018-03-03T08:30:13.664Z,41.30
2018-03-03T08:31:13.579Z,40.80
2018-03-03T08:32:13.493Z,39.40
2018-03-03T08:33:13.411Z,40.20
2018-03-03T08:34:13.326Z,41.30
2018-03-03T08:35:13.242Z,40.60
2018-03-03T08:36:13.158Z,41.90
2018-03-03T08:37:13.073Z,41.30
2018-03-03T08:38:12.989Z,43.60
2018-03-03T08:39:12.906Z,41.20
2018-03-03T08:40:12.821Z,42.20
2018-03-03T08:41:12.738Z,42.40
2018-03-03T08:42:12.653Z,38.70
2018-03-03T08:43:12.570Z,40.80
2018-03-03T08:44:12.486Z,41.00
2018-03-03T08:45:12.401Z,40.50
2018-03-03T08:46:12.319Z,41.80
2018-03-03T08:47:12.234Z,41.30
2018-03-03T08:48:12.151Z,42.20
2018-03-03T08:49:12.068Z,45.10
2018-03-03T08:50:11.984Z,42.80
2018-03-03T08:51:11.907Z,41.20
2018-03-03T08:52:11.815Z,42.20
2018-03-03T08:53:11.737Z,41.40
2018-03-03T08:54:11.650Z,40.60
2018-03-03T08:55:11.567Z,40.70
2018-03-03T08:56:11.482Z,40.30
2018-03-03T08:57:11.427Z,41.30
2018-03-03T08:58:11.316Z,41.20
2018-03-03T08:59:11.233Z,43.50
2018-03-03T09:00:11.151Z,40.80
2018-03-03T09:01:11.065Z,40.10
2018-03-03T09:02:10.983Z,40.70
2018-03-03T09:03:10.897Z,39.50
2018-03-03T09:04:10.813Z,40.10
2018-03-03T09:05:10.728Z,40.70
2018-03-03T09:06:10.645Z,40.40
2018-03-03T09:07:10.566Z,41.10
2018-03-03T09:08:10.477Z,41.80
2018-03-03T09:09:10.394Z,41.80
2018-03-03T09:10:10.312Z,41.90
2018-03-03T09:11:10.227Z,41.00
2018-03-03T09:12:10.143Z,41.40
2018-03-03T09:13:10.060Z,40.30
2018-03-03T09:14:09.977Z,42.40
2018-03-03T09:15:09.894Z,42.90
2018-03-03T09:16:09.811Z,42.50
2018-03-03T09:17:09.728Z,39.10
2018-03-03T09:18:09.645Z,42.00
2018-03-03T09:19:09.570Z,42.80
2018-03-03T09:20:09.478Z,42.30
2018-03-03T09:21:09.396Z,41.20
2018-03-03T09:22:09.313Z,39.40
2018-03-03T09:23:09.231Z,41.50
2018-03-03T09:24:09.148Z,39.60
2018-03-03T09:25:09.065Z,39.70
2018-03-03T09:26:08.982Z,39.30
2018-03-03T09:27:08.901Z,40.60
2018-03-03T09:28:08.819Z,40.10
2018-03-03T09:29:08.734Z,39.10
2018-03-03T09:30:08.653Z,40.00
2018-03-03T09:31:08.570Z,40.20
2018-03-03T09:32:08.486Z,38.80
2018-03-03T09:33:08.406Z,42.10
2018-03-03T09:34:08.324Z,39.80
2018-03-03T09:35:08.246Z,38.70
2018-03-03T09:36:08.158Z,39.60
2018-03-03T09:37:08.077Z,38.80
2018-03-03T09:38:07.995Z,38.80
2018-03-03T09:39:07.915Z,37.90
2018-03-03T09:40:07.830Z,37.80
2018-03-03T09:41:07.750Z,40.70
2018-03-03T09:42:07.666Z,40.60
2018-03-03T09:43:07.585Z,39.80
2018-03-03T09:44:07.502Z,39.40
2018-03-03T09:45:07.423Z,39.30
2018-03-03T09:46:07.350Z,40.20
2018-03-03T09:47:07.258Z,39.30
2018-03-03T09:48:07.174Z,39.60
2018-03-03T09:49:07.093Z,38.10
2018-03-03T09:50:07.012Z,40.00
2018-03-03T09:51:06.930Z,36.70
2018-03-03T09:52:06.848Z,35.50
2018-03-03T09:53:06.766Z,36.60
2018-03-03T09:54:06.685Z,38.70
2018-03-03T09:55:06.604Z,35.90
2018-03-03T09:56:06.522Z,37.20
2018-03-03T09:57:06.440Z,37.00
2018-03-03T09:58:06.360Z,36.30
2018-03-03T09:59:06.278Z,37.10
2018-03-03T10:00:06.195Z,37.10
2018-03-03T10:01:06.113Z,36.50
2018-03-03T10:02:06.584Z,37.10
2018-03-03T10:03:05.952Z,37.00
2018-03-03T10:04:05.870Z,37.30
2018-03-03T10:05:05.789Z,37.20
2018-03-03T10:06:05.708Z,36.60
2018-03-03T10:07:05.628Z,33.20
2018-03-03T10:08:05.547Z,35.10
2018-03-03T10:09:05.465Z,35.70
2018-03-03T10:10:05.388Z,34.70
2018-03-03T10:11:05.303Z,34.70
2018-03-03T10:12:05.222Z,34.00
2018-03-03T10:13:05.142Z,35.50
2018-03-03T10:14:05.060Z,36.50
2018-03-03T10:15:04.995Z,34.40
2018-03-03T10:16:04.898Z,35.60
2018-03-03T10:17:04.818Z,37.70
2018-03-03T10:18:04.738Z,36.00
2018-03-03T10:19:04.656Z,36.50
2018-03-03T10:20:04.579Z,36.90
2018-03-03T10:21:04.495Z,39.00
2018-03-03T10:22:04.416Z,39.70
2018-03-03T10:23:04.338Z,39.80
2018-03-03T10:24:04.257Z,40.30
2018-03-03T10:25:04.177Z,40.30
2018-03-03T10:26:04.092Z,39.60
2018-03-03T10:27:04.015Z,39.30
2018-03-03T10:28:03.930Z,40.20
2018-03-03T10:29:03.849Z,39.60
2018-03-03T10:30:03.768Z,37.50
2018-03-03T10:31:03.690Z,38.90
2018-03-03T10:32:03.607Z,38.70
2018-03-03T10:33:03.605Z,37.10
2018-03-03T10:34:03.446Z,38.10
2018-03-03T10:35:03.366Z,38.20
2018-03-03T10:36:03.284Z,37.80
2018-03-03T10:37:03.205Z,37.40
2018-03-03T10:38:03.124Z,38.60
2018-03-03T10:39:03.044Z,40.00
2018-03-03T10:40:02.962Z,38.20
2018-03-03T10:41:02.882Z,39.70
2018-03-03T10:42:02.801Z,37.70
2018-03-03T10:43:02.723Z,39.30
2018-03-03T10:44:02.643Z,37.40
2018-03-03T10:45:02.559Z,38.40
2018-03-03T10:46:02.478Z,38.30
2018-03-03T10:47:02.397Z,39.70
2018-03-03T10:48:02.317Z,38.40
2018-03-03T10:49:02.235Z,38.30
2018-03-03T10:50:02.156Z,37.40
2018-03-03T10:51:02.077Z,37.80
2018-03-03T10:52:01.993Z,35.90
2018-03-03T10:53:01.914Z,36.30
2018-03-03T10:54:01.832Z,40.00
2018-03-03T10:55:01.750Z,40.90
2018-03-03T10:56:01.669Z,38.60
2018-03-03T10:57:01.590Z,36.60
2018-03-03T10:58:01.511Z,40.10
2018-03-03T10:59:01.427Z,39.50
2018-03-03T11:00:01.346Z,37.80
2018-03-03T11:01:01.265Z,39.20
2018-03-03T11:02:01.186Z,38.00
2018-03-03T11:03:01.102Z,39.20
2018-03-03T11:04:01.025Z,38.20
2018-03-03T11:05:00.940Z,39.80
2018-03-03T11:06:00.860Z,38.30
2018-03-03T11:07:00.779Z,38.00
2018-03-03T11:08:00.698Z,38.90
2018-03-03T11:09:00.617Z,37.20
2018-03-03T11:10:00.537Z,38.70
2018-03-03T11:11:00.465Z,38.40
2018-03-03T11:12:00.380Z,37.00
2018-03-03T11:13:00.296Z,37.50
2018-03-03T11:14:00.214Z,37.40
2018-03-03T11:15:00.138Z,37.90
2018-03-03T11:16:00.054Z,35.30
2018-03-03T11:16:59.974Z,38.40
2018-03-03T11:17:59.893Z,38.10
2018-03-03T11:18:59.812Z,36.90
2018-03-03T11:19:59.732Z,37.80
2018-03-03T11:20:59.651Z,37.70
2018-03-03T11:21:59.572Z,37.90
2018-03-03T11:22:59.491Z,38.70
2018-03-03T11:23:59.408Z,38.30
2018-03-03T11:24:59.330Z,37.50
2018-03-03T11:25:59.253Z,39.80
2018-03-03T11:26:59.169Z,38.30
2018-03-03T11:27:59.091Z,38.70
2018-03-03T11:28:59.008Z,39.30
2018-03-03T11:29:58.927Z,38.40
2018-03-03T11:30:58.845Z,39.90
2018-03-03T11:31:58.764Z,40.20
2018-03-03T11:32:58.684Z,40.40
2018-03-03T11:33:58.603Z,42.30
2018-03-03T11:34:58.521Z,39.80
2018-03-03T11:35:58.440Z,41.10
2018-03-03T11:36:58.358Z,40.90
2018-03-03T11:37:58.276Z,41.00
2018-03-03T11:38:58.195Z,40.70
2018-03-03T11:39:58.114Z,41.10
2018-03-03T11:40:58.035Z,39.50
2018-03-03T11:41:57.957Z,40.80
2018-03-03T11:42:57.870Z,39.00
2018-03-03T11:43:57.788Z,40.10
2018-03-03T11:44:57.707Z,42.00
2018-03-03T11:45:57.627Z,39.10
2018-03-03T11:46:57.546Z,38.60
2018-03-03T11:47:57.463Z,40.90
2018-03-03T11:48:57.382Z,39.20
2018-03-03T11:49:57.301Z,38.80
2018-03-03T11:50:57.225Z,38.50
2018-03-03T11:51:57.139Z,40.30
2018-03-03T11:52:57.062Z,39.10
2018-03-03T11:53:56.976Z,41.00
2018-03-03T11:54:56.894Z,39.20
2018-03-03T11:55:56.813Z,37.70
2018-03-03T11:56:56.735Z,36.80
2018-03-03T11:57:56.655Z,37.40
2018-03-03T11:58:56.568Z,35.70
2018-03-03T11:59:56.487Z,34.70
2018-03-03T12:00:56.404Z,36.10
2018-03-03T12:01:56.324Z,34.50
2018-03-03T12:02:56.243Z,35.20
2018-03-03T12:03:56.160Z,34.30
2018-03-03T12:04:56.078Z,34.60
2018-03-03T12:05:56.002Z,33.10
2018-03-03T12:06:55.918Z,33.10
2018-03-03T12:07:55.833Z,34.00
2018-03-03T12:08:55.753Z,33.00
2018-03-03T12:09:55.670Z,31.70
2018-03-03T12:10:55.591Z,32.00
2018-03-03T12:11:55.507Z,32.80
2018-03-03T12:12:55.424Z,33.10
2018-03-03T12:13:55.343Z,34.00
2018-03-03T12:14:55.263Z,33.50
2018-03-03T12:15:55.179Z,34.90
2018-03-03T12:16:55.098Z,32.90
2018-03-03T12:17:55.017Z,34.40
2018-03-03T12:18:54.935Z,34.80
2018-03-03T12:19:54.852Z,34.50
2018-03-03T12:20:54.771Z,35.00
2018-03-03T12:21:54.690Z,37.30
2018-03-03T12:22:54.609Z,35.10
2018-03-03T12:23:54.529Z,34.80
2018-03-03T12:24:54.445Z,34.60
2018-03-03T12:25:54.363Z,34.30
2018-03-03T12:26:54.282Z,34.70
2018-03-03T12:27:54.201Z,35.00
2018-03-03T12:28:54.135Z,33.30
2018-03-03T12:29:54.038Z,33.20
2018-03-03T12:30:53.955Z,33.30
2018-03-03T12:31:53.873Z,33.80
2018-03-03T12:32:53.792Z,32.90
2018-03-03T12:33:53.711Z,35.30
2018-03-03T12:34:53.630Z,34.40
2018-03-03T12:35:53.548Z,34.50
2018-03-03T12:36:53.468Z,33.50
2018-03-03T12:37:53.386Z,33.90
2018-03-03T12:38:53.306Z,33.90
2018-03-03T12:39:53.224Z,34.40
2018-03-03T12:40:53.141Z,34.10
2018-03-03T12:41:53.060Z,35.00
2018-03-03T12:42:52.980Z,36.70
2018-03-03T12:43:52.898Z,35.10
2018-03-03T12:44:52.817Z,35.20
2018-03-03T12:45:52.735Z,35.50
2018-03-03T12:46:52.655Z,34.50
2018-03-03T12:47:52.572Z,35.00
2018-03-03T12:48:52.491Z,34.80
2018-03-03T12:49:52.412Z,33.50
2018-03-03T12:50:52.329Z,34.60
2018-03-03T12:51:52.247Z,33.70